createdAt,value
2018-09-12T00:00:13.941Z,6.10
2018-09-12T00:02:42.350Z,6.47
2018-09-12T00:05:11.800Z,7.30
2018-09-12T00:07:40.265Z,6.03
2018-09-12T00:10:08.688Z,6.47
2018-09-12T00:12:37.081Z,6.30
2018-09-12T00:15:05.593Z,6.30
2018-09-12T00:17:34.016Z,6.47
2018-09-12T00:20:02.576Z,6.07
2018-09-12T00:22:30.965Z,6.27
2018-09-12T00:24:59.438Z,9.87
2018-09-12T00:27:27.853Z,7.50
2018-09-12T00:29:56.318Z,6.90
2018-09-12T00:32:24.747Z,6.30
2018-09-12T00:34:53.172Z,6.43
2018-09-12T00:37:21.577Z,5.83
2018-09-12T00:39:50.010Z,6.63
2018-09-12T00:42:18.409Z,6.10
2018-09-12T00:44:46.821Z,8.13
2018-09-12T00:47:15.228Z,7.10
2018-09-12T00:49:43.616Z,6.73
2018-09-12T00:52:12.029Z,7.60
2018-09-12T00:54:40.629Z,6.00
2018-09-12T00:57:09.112Z,6.73
2018-09-12T00:59:38.604Z,6.50
2018-09-12T01:02:07.034Z,5.13
2018-09-12T01:04:35.452Z,6.80
2018-09-12T01:07:03.960Z,6.57
2018-09-12T01:09:32.522Z,6.00
2018-09-12T01:12:00.942Z,6.37
2018-09-12T01:14:31.282Z,6.27
2018-09-12T01:17:00.199Z,6.67
2018-09-12T01:19:29.048Z,6.00
2018-09-12T01:21:57.508Z,5.50
2018-09-12T01:24:25.918Z,6.27
2018-09-12T01:26:54.413Z,5.90
2018-09-12T01:29:26.314Z,7.00
2018-09-12T01:31:54.874Z,7.10
2018-09-12T01:34:24.237Z,6.07
2018-09-12T01:36:52.785Z,6.63
2018-09-12T01:39:21.170Z,6.77
2018-09-12T01:41:49.591Z,5.73
2018-09-12T01:44:18.606Z,5.70
2018-09-12T01:46:46.991Z,5.77
2018-09-12T01:49:17.497Z,6.10
2018-09-12T01:51:46.845Z,5.83
2018-09-12T01:54:15.786Z,5.37
2018-09-12T01:56:44.189Z,6.10
2018-09-12T01:59:13.062Z,5.40
2018-09-12T02:01:41.829Z,6.40
2018-09-12T02:04:10.280Z,5.87
2018-09-12T02:06:38.731Z,6.00
2018-09-12T02:09:10.225Z,5.93
2018-09-12T02:11:38.700Z,5.77
2018-09-12T02:14:07.136Z,5.77
2018-09-12T02:16:35.550Z,6.37
2018-09-12T02:19:04.305Z,6.17
2018-09-12T02:21:32.704Z,5.97
2018-09-12T02:24:02.033Z,7.27
2018-09-12T02:26:30.485Z,6.40
2018-09-12T02:28:58.926Z,6.53
2018-09-12T02:31:27.318Z,5.43
2018-09-12T02:33:55.870Z,5.67
2018-09-12T02:36:28.649Z,5.93
2018-09-12T02:38:58.298Z,6.73
2018-09-12T02:41:26.697Z,8.63
2018-09-12T02:43:55.564Z,5.63
2018-09-12T02:46:24.111Z,7.27
2018-09-12T02:48:52.888Z,5.60
2018-09-12T02:51:21.344Z,5.23
2018-09-12T02:53:49.815Z,7.07
2018-09-12T02:56:18.484Z,6.13
2018-09-12T02:58:46.891Z,5.90
2018-09-12T03:01:15.702Z,6.60
2018-09-12T03:03:44.113Z,8.63
2018-09-12T03:06:12.557Z,7.10
2018-09-12T03:08:40.984Z,8.17
2018-09-12T03:11:09.446Z,8.37
2018-09-12T03:13:37.825Z,5.70
2018-09-12T03:16:06.285Z,6.27
2018-09-12T03:18:34.726Z,5.97
2018-09-12T03:21:03.802Z,7.23
2018-09-12T03:23:32.099Z,7.67
2018-09-12T03:26:00.524Z,9.03
2018-09-12T03:28:28.906Z,7.80
2018-09-12T03:30:57.366Z,5.83
2018-09-12T03:33:25.744Z,5.97
2018-09-12T03:35:54.133Z,5.87
2018-09-12T03:38:22.617Z,6.37
2018-09-12T03:40:50.986Z,5.53
2018-09-12T03:43:19.420Z,5.77
2018-09-12T03:45:47.814Z,5.93
2018-09-12T03:48:16.246Z,5.63
2018-09-12T03:50:44.626Z,6.20
2018-09-12T03:53:13.073Z,6.10
2018-09-12T03:55:41.461Z,5.93
2018-09-12T03:58:09.891Z,5.97
2018-09-12T04:00:38.297Z,6.27
2018-09-12T04:03:06.729Z,5.20
2018-09-12T04:05:35.125Z,5.93
2018-09-12T04:08:03.557Z,5.67
2018-09-12T04:10:31.960Z,6.60
2018-09-12T04:13:00.360Z,5.87
2018-09-12T04:15:28.754Z,5.97
2018-09-12T04:17:57.184Z,6.10
2018-09-12T04:20:25.584Z,8.63
2018-09-12T04:22:53.997Z,6.97
2018-09-12T04:25:22.388Z,6.00
2018-09-12T04:27:50.810Z,5.07
2018-09-12T04:30:19.200Z,5.80
2018-09-12T04:32:47.609Z,6.20
2018-09-12T04:35:15.977Z,5.73
2018-09-12T04:37:44.610Z,6.00
2018-09-12T04:40:13.106Z,5.53
2018-09-12T04:42:41.600Z,7.50
2018-09-12T04:45:09.925Z,7.33
2018-09-12T04:47:38.309Z,7.40
2018-09-12T04:50:06.806Z,8.43
2018-09-12T04:52:35.399Z,6.57
2018-09-12T04:55:03.998Z,6.63
2018-09-12T04:57:32.396Z,7.03
2018-09-12T05:00:00.926Z,6.73
2018-09-12T05:02:29.366Z,7.67
2018-09-12T05:04:57.826Z,8.57
2018-09-12T05:07:26.268Z,7.83
2018-09-12T05:09:54.751Z,6.67
2018-09-12T05:12:23.130Z,7.03
2018-09-12T05:14:51.589Z,7.67
2018-09-12T05:17:20.010Z,9.47
2018-09-12T05:19:50.526Z,7.80
2018-09-12T05:22:18.970Z,7.70
2018-09-12T05:24:47.373Z,6.43
2018-09-12T05:27:15.899Z,7.63
2018-09-12T05:29:44.336Z,7.90
2018-09-12T05:32:12.777Z,6.07
2018-09-12T05:34:41.159Z,7.03
2018-09-12T05:37:09.572Z,6.50
2018-09-12T05:39:37.970Z,5.67
2018-09-12T05:42:07.008Z,7.40
2018-09-12T05:44:35.404Z,6.17
2018-09-12T05:47:03.842Z,5.87
2018-09-12T05:49:32.258Z,10.53
2018-09-12T05:52:00.687Z,7.20
2018-09-12T05:54:29.059Z,6.27
2018-09-12T05:56:57.493Z,8.33
2018-09-12T05:59:25.936Z,8.17
2018-09-12T06:01:54.379Z,8.57
2018-09-12T06:04:22.778Z,6.47
2018-09-12T06:06:51.264Z,7.83
2018-09-12T06:09:19.671Z,8.63
2018-09-12T06:11:48.093Z,6.37
2018-09-12T06:14:16.512Z,7.10
2018-09-12T06:16:44.972Z,5.83
2018-09-12T06:19:13.373Z,7.70
2018-09-12T06:21:41.771Z,9.67
2018-09-12T06:24:10.201Z,6.53
2018-09-12T06:26:38.605Z,8.47
2018-09-12T06:29:07.025Z,6.40
2018-09-12T06:31:35.433Z,9.53
2018-09-12T06:34:03.993Z,6.73
2018-09-12T06:36:32.389Z,7.33
2018-09-12T06:39:00.837Z,6.33
2018-09-12T06:41:29.305Z,10.77
2018-09-12T06:43:57.729Z,6.00
2018-09-12T06:46:26.109Z,6.57
2018-09-12T06:48:54.561Z,8.77
2018-09-12T06:51:22.949Z,7.23
2018-09-12T06:53:51.386Z,8.13
2018-09-12T06:56:19.849Z,6.93
2018-09-12T06:58:48.286Z,8.87
2018-09-12T07:01:16.685Z,7.37
2018-09-12T07:03:45.121Z,8.90
2018-09-12T07:06:13.525Z,6.67
2018-09-12T07:08:42.009Z,6.43
2018-09-12T07:11:10.417Z,8.00
2018-09-12T07:13:38.825Z,6.67
2018-09-12T07:16:07.299Z,6.00
2018-09-12T07:18:35.695Z,6.93
2018-09-12T07:21:04.189Z,8.60
2018-09-12T07:23:32.641Z,9.55
2018-09-12T07:26:01.065Z,10.10
2018-09-12T07:28:29.464Z,8.00
2018-09-12T07:30:57.895Z,8.18
2018-09-12T07:33:26.264Z,8.63
2018-09-12T07:35:54.709Z,12.95
2018-09-12T07:38:23.102Z,11.38
2018-09-12T07:40:51.524Z,9.95
2018-09-12T07:43:19.913Z,6.92
2018-09-12T07:45:48.341Z,7.40
2018-09-12T07:48:16.736Z,7.17
2018-09-12T07:50:48.677Z,6.72
2018-09-12T07:53:17.733Z,7.28
2018-09-12T07:55:46.168Z,8.73
2018-09-12T07:58:14.619Z,5.78
2018-09-12T08:00:43.167Z,8.78
2018-09-12T08:03:11.533Z,6.08
2018-09-12T08:05:39.917Z,11.12
2018-09-12T08:08:08.426Z,6.28
2018-09-12T08:10:36.829Z,6.87
2018-09-12T08:13:05.285Z,6.10
2018-09-12T08:15:33.693Z,5.95
2018-09-12T08:18:02.726Z,6.30
2018-09-12T08:20:31.098Z,6.20
2018-09-12T08:22:59.521Z,11.57
2018-09-12T08:25:27.930Z,4.83
2018-09-12T08:27:56.374Z,8.75
2018-09-12T08:30:24.787Z,4.92
2018-09-12T08:32:53.226Z,5.90
2018-09-12T08:35:21.638Z,5.28
2018-09-12T08:37:50.050Z,6.08
2018-09-12T08:40:18.465Z,5.22
2018-09-12T08:42:46.890Z,6.40
2018-09-12T08:45:15.353Z,10.20
2018-09-12T08:47:43.791Z,10.98
2018-09-12T08:50:12.181Z,7.10
2018-09-12T08:52:40.667Z,6.00
2018-09-12T08:55:09.119Z,6.92
2018-09-12T08:57:37.562Z,7.15
2018-09-12T09:00:06.714Z,6.70
2018-09-12T09:02:35.138Z,5.95
2018-09-12T09:05:03.539Z,5.95
2018-09-12T09:07:31.987Z,5.87
2018-09-12T09:10:00.456Z,7.25
2018-09-12T09:12:28.840Z,6.28
2018-09-12T09:14:57.283Z,5.53
2018-09-12T09:17:25.741Z,4.97
2018-09-12T09:19:54.197Z,4.87
2018-09-12T09:22:22.599Z,5.62
2018-09-12T09:24:51.105Z,6.08
2018-09-12T09:27:19.514Z,6.20
2018-09-12T09:29:47.921Z,5.03
2018-09-12T09:32:16.331Z,4.97
2018-09-12T09:34:44.826Z,5.37
2018-09-12T09:37:13.229Z,6.47
2018-09-12T09:39:41.674Z,5.20
2018-09-12T09:42:10.068Z,5.67
2018-09-12T09:44:38.492Z,7.37
2018-09-12T09:47:06.894Z,5.70
2018-09-12T09:49:35.321Z,5.03
2018-09-12T09:52:03.695Z,6.58
2018-09-12T09:54:32.166Z,6.50
2018-09-12T09:57:00.552Z,5.70
2018-09-12T09:59:29.001Z,7.22
2018-09-12T10:02:02.814Z,5.67
2018-09-12T10:04:37.114Z,5.35
2018-09-12T10:07:11.168Z,4.83
2018-09-12T10:09:39.645Z,4.95
2018-09-12T10:12:08.027Z,6.35
2018-09-12T10:14:36.438Z,4.95
2018-09-12T10:17:04.885Z,7.58
2018-09-12T10:19:33.314Z,5.62
2018-09-12T10:22:02.054Z,4.45
2018-09-12T10:24:30.436Z,5.40
2018-09-12T10:26:58.879Z,8.80
2018-09-12T10:29:27.273Z,5.25
2018-09-12T10:31:55.717Z,5.95
2018-09-12T10:34:24.134Z,4.95
2018-09-12T10:36:52.562Z,6.33
2018-09-12T10:39:21.013Z,5.22
2018-09-12T10:41:49.499Z,6.33
2018-09-12T10:44:17.934Z,4.37
2018-09-12T10:46:46.401Z,4.85
2018-09-12T10:49:14.807Z,5.85
2018-09-12T10:51:43.205Z,6.65
2018-09-12T10:54:11.670Z,7.92
2018-09-12T10:56:40.092Z,5.85
2018-09-12T10:59:08.552Z,5.37
2018-09-12T11:01:36.932Z,5.70
2018-09-12T11:04:05.436Z,5.45
2018-09-12T11:06:33.925Z,7.30
2018-09-12T11:09:02.996Z,5.58
2018-09-12T11:11:31.405Z,6.50
2018-09-12T11:13:59.821Z,7.05
2018-09-12T11:16:28.266Z,5.40
2018-09-12T11:18:56.716Z,6.53
2018-09-12T11:21:25.113Z,4.87
2018-09-12T11:23:53.563Z,6.55
2018-09-12T11:26:22.006Z,5.95
2018-09-12T11:28:51.068Z,5.92
2018-09-12T11:31:19.481Z,7.15
2018-09-12T11:33:47.939Z,6.55
2018-09-12T11:36:16.379Z,5.25
2018-09-12T11:38:45.045Z,5.50
2018-09-12T11:41:13.448Z,5.33
2018-09-12T11:43:41.925Z,5.10
2018-09-12T11:46:10.413Z,5.33
2018-09-12T11:48:38.823Z,5.40
2018-09-12T11:51:07.305Z,6.10
2018-09-12T11:53:35.711Z,5.40
2018-09-12T11:56:04.340Z,5.62
2018-09-12T11:58:32.731Z,5.00
2018-09-12T12:01:01.169Z,6.95
2018-09-12T12:03:29.649Z,6.42
2018-09-12T12:05:58.123Z,4.25
2018-09-12T12:08:26.593Z,4.72
2018-09-12T12:10:55.060Z,4.92
2018-09-12T12:13:23.478Z,5.25
2018-09-12T12:15:51.907Z,6.62
2018-09-12T12:18:20.281Z,5.20
2018-09-12T12:20:48.742Z,5.95
2018-09-12T12:23:17.220Z,5.10
2018-09-12T12:25:45.589Z,6.50
2018-09-12T12:28:14.005Z,6.03
2018-09-12T12:30:42.473Z,5.10
2018-09-12T12:33:10.854Z,11.45
2018-09-12T12:35:39.450Z,7.17
2018-09-12T12:38:07.857Z,5.20
2018-09-12T12:40:36.233Z,5.22
2018-09-12T12:43:05.013Z,5.85
2018-09-12T12:45:33.478Z,4.72
2018-09-12T12:48:01.923Z,8.83
2018-09-12T12:50:30.313Z,6.53
2018-09-12T12:52:59.793Z,5.70
2018-09-12T12:55:28.190Z,6.40
2018-09-12T12:57:56.649Z,6.80
2018-09-12T13:00:25.069Z,4.95
2018-09-12T13:02:53.819Z,5.90
2018-09-12T13:05:22.263Z,4.33
2018-09-12T13:07:50.792Z,5.10
2018-09-12T13:10:19.213Z,5.15
2018-09-12T13:12:47.892Z,6.72
2018-09-12T13:15:16.301Z,6.65
2018-09-12T13:17:44.863Z,6.17
2018-09-12T13:20:13.246Z,5.58
2018-09-12T13:22:41.661Z,4.90
2018-09-12T13:25:10.054Z,8.13
2018-09-12T13:27:38.625Z,5.70
2018-09-12T13:30:07.005Z,5.05
2018-09-12T13:32:35.441Z,5.42
2018-09-12T13:35:03.921Z,5.70
2018-09-12T13:37:32.877Z,6.28
2018-09-12T13:40:01.293Z,5.00
2018-09-12T13:42:29.680Z,5.42
2018-09-12T13:44:58.141Z,5.42
2018-09-12T13:47:26.525Z,6.65
2018-09-12T13:49:54.967Z,6.70
2018-09-12T13:52:23.353Z,5.72
2018-09-12T13:54:51.791Z,5.22
2018-09-12T13:57:20.201Z,5.10
2018-09-12T13:59:48.648Z,5.42
2018-09-12T14:02:17.041Z,6.17
2018-09-12T14:04:45.482Z,6.35
2018-09-12T14:07:13.913Z,5.37
2018-09-12T14:09:42.351Z,5.22
2018-09-12T14:12:11.441Z,5.15
2018-09-12T14:14:39.884Z,5.22
2018-09-12T14:17:08.461Z,6.25
2018-09-12T14:19:36.872Z,9.95
2018-09-12T14:22:05.265Z,9.18
2018-09-12T14:24:33.842Z,5.45
2018-09-12T14:27:02.244Z,5.97
2018-09-12T14:29:30.668Z,5.50
2018-09-12T14:31:59.073Z,5.28
2018-09-12T14:34:27.437Z,7.70
2018-09-12T14:36:55.833Z,5.83
2018-09-12T14:39:24.241Z,6.72
2018-09-12T14:41:52.669Z,5.55
2018-09-12T14:44:21.063Z,5.70
2018-09-12T14:46:49.505Z,5.22
2018-09-12T14:49:17.881Z,6.25
2018-09-12T14:51:46.280Z,5.78
2018-09-12T14:54:14.731Z,5.28
2018-09-12T14:56:43.166Z,5.40
2018-09-12T14:59:11.653Z,4.90
2018-09-12T15:01:40.115Z,6.67
2018-09-12T15:04:08.481Z,5.95
2018-09-12T15:06:36.881Z,7.00
2018-09-12T15:09:08.973Z,5.53
2018-09-12T15:11:37.388Z,5.47
2018-09-12T15:14:12.386Z,5.85
2018-09-12T15:16:40.821Z,5.15
2018-09-12T15:19:09.220Z,6.17
2018-09-12T15:21:37.645Z,5.62
2018-09-12T15:24:06.037Z,6.80
2018-09-12T15:26:34.413Z,5.08
2018-09-12T15:29:03.568Z,5.78
2018-09-12T15:31:31.947Z,4.97
2018-09-12T15:34:00.368Z,5.40
2018-09-12T15:36:28.762Z,5.10
2018-09-12T15:38:57.177Z,5.40
2018-09-12T15:41:25.608Z,6.28
2018-09-12T15:43:54.023Z,5.05
2018-09-12T15:46:22.405Z,4.53
2018-09-12T15:48:50.801Z,5.70
2018-09-12T15:51:19.178Z,5.17
2018-09-12T15:53:47.861Z,6.90
2018-09-12T15:56:16.258Z,4.78
2018-09-12T15:58:44.673Z,4.97
2018-09-12T16:01:13.042Z,4.50
2018-09-12T16:03:41.506Z,4.72
2018-09-12T16:06:09.903Z,4.55
2018-09-12T16:08:38.401Z,3.83
2018-09-12T16:11:06.797Z,4.62
2018-09-12T16:13:35.217Z,5.62
2018-09-12T16:16:03.646Z,5.97
2018-09-12T16:18:32.068Z,6.05
2018-09-12T16:21:00.469Z,5.45
2018-09-12T16:23:28.881Z,5.15
2018-09-12T16:25:57.453Z,6.53
2018-09-12T16:28:25.824Z,8.90
2018-09-12T16:30:54.252Z,6.50
2018-09-12T16:33:22.641Z,6.08
2018-09-12T16:35:51.113Z,5.03
2018-09-12T16:38:19.586Z,6.10
2018-09-12T16:40:48.048Z,5.45
2018-09-12T16:43:16.444Z,7.03
2018-09-12T16:45:44.913Z,6.10
2018-09-12T16:48:13.304Z,5.00
2018-09-12T16:50:42.356Z,5.85
2018-09-12T16:53:10.698Z,5.95
2018-09-12T16:55:39.124Z,7.67
2018-09-12T16:58:07.547Z,7.70
2018-09-12T17:00:35.985Z,7.72
2018-09-12T17:03:04.413Z,5.72
2018-09-12T17:05:32.837Z,5.75
2018-09-12T17:08:02.045Z,5.95
2018-09-12T17:10:30.469Z,5.92
2018-09-12T17:12:58.862Z,5.90
2018-09-12T17:15:27.251Z,5.70
2018-09-12T17:17:55.664Z,5.40
2018-09-12T17:20:24.321Z,6.30
2018-09-12T17:22:52.733Z,6.40
2018-09-12T17:25:21.096Z,6.00
2018-09-12T17:27:49.505Z,6.25
2018-09-12T17:30:17.901Z,5.37
2018-09-12T17:32:46.309Z,6.60
2018-09-12T17:35:15.521Z,5.33
2018-09-12T17:37:43.992Z,6.37
2018-09-12T17:40:12.417Z,8.38
2018-09-12T17:42:40.829Z,8.03
2018-09-12T17:45:09.341Z,6.30
2018-09-12T17:47:38.098Z,7.85
2018-09-12T17:50:06.710Z,10.45
2018-09-12T17:52:35.143Z,5.70
2018-09-12T17:55:03.588Z,10.25
2018-09-12T17:57:32.093Z,9.08
2018-09-12T18:00:00.593Z,9.63
2018-09-12T18:02:29.097Z,8.95
2018-09-12T18:04:57.488Z,9.33
2018-09-12T18:07:25.961Z,10.63
2018-09-12T18:09:54.411Z,8.28
2018-09-12T18:14:57.406Z,15.05
2018-09-12T18:17:25.844Z,10.20
2018-09-12T18:19:54.241Z,12.00
2018-09-12T18:22:22.616Z,12.53
2018-09-12T18:24:51.159Z,10.95
2018-09-12T18:27:19.506Z,13.28
2018-09-12T18:29:47.977Z,13.25
2018-09-12T18:32:16.374Z,11.93
2018-09-12T18:34:44.885Z,11.53
2018-09-12T18:37:13.325Z,14.80
2018-09-12T18:39:41.721Z,14.50
2018-09-12T18:42:10.111Z,14.68
2018-09-12T18:44:38.537Z,13.98
2018-09-12T18:47:06.941Z,19.92
2018-09-12T18:49:35.341Z,13.40
2018-09-12T18:52:03.738Z,13.53
2018-09-12T18:54:32.132Z,14.73
2018-09-12T18:57:00.540Z,12.05
2018-09-12T18:59:28.998Z,13.30
2018-09-12T19:01:57.421Z,13.48
2018-09-12T19:04:25.845Z,14.43
2018-09-12T19:06:54.357Z,14.15
2018-09-12T19:09:22.702Z,13.58
2018-09-12T19:11:51.121Z,15.28
2018-09-12T19:14:19.497Z,13.55
2018-09-12T19:16:47.929Z,13.08
2018-09-12T19:19:16.309Z,17.20
2018-09-12T19:21:44.745Z,14.10
2018-09-12T19:24:13.184Z,14.10
2018-09-12T19:26:41.613Z,16.17
2018-09-12T19:29:09.985Z,16.12
2018-09-12T19:31:38.409Z,14.33
2018-09-12T19:34:06.815Z,16.93
2018-09-12T19:36:35.346Z,14.18
2018-09-12T19:39:04.075Z,15.80
2018-09-12T19:41:32.486Z,16.17
2018-09-12T19:44:00.861Z,17.73
2018-09-12T19:46:29.273Z,14.38
2018-09-12T19:48:57.662Z,17.17
2018-09-12T19:51:26.269Z,19.95
2018-09-12T19:53:54.747Z,14.53
2018-09-12T19:56:23.313Z,14.95
2018-09-12T19:58:51.728Z,16.97
2018-09-12T20:01:20.190Z,17.57
2018-09-12T20:03:48.616Z,17.27
2018-09-12T20:06:16.997Z,16.48
2018-09-12T20:08:45.569Z,14.35
2018-09-12T20:11:13.957Z,19.15
2018-09-12T20:13:42.444Z,13.15
2018-09-12T20:16:10.952Z,15.10
2018-09-12T20:18:39.397Z,14.25
2018-09-12T20:21:07.813Z,13.75
2018-09-12T20:23:36.379Z,14.15
2018-09-12T20:26:05.052Z,12.47
2018-09-12T20:28:41.872Z,11.08
2018-09-12T20:31:10.667Z,10.95
2018-09-12T20:33:39.872Z,13.83
2018-09-12T20:36:08.373Z,13.10
2018-09-12T20:38:36.891Z,15.05
2018-09-12T20:41:05.865Z,13.48
2018-09-12T20:43:34.551Z,12.53
2018-09-12T20:46:03.727Z,15.05
2018-09-12T20:48:32.209Z,12.47
2018-09-12T20:51:01.976Z,10.23
2018-09-12T20:53:30.435Z,12.60
2018-09-12T20:55:58.829Z,10.30
2018-09-12T20:58:27.260Z,11.33
2018-09-12T21:00:55.754Z,10.38
2018-09-12T21:03:24.138Z,9.83
2018-09-12T21:05:52.741Z,11.35
2018-09-12T21:11:23.722Z,10.93
2018-09-12T21:13:52.130Z,12.58
2018-09-12T21:16:20.566Z,9.83
2018-09-12T21:18:49.032Z,8.48
2018-09-12T21:21:17.495Z,8.18
2018-09-12T21:23:46.100Z,9.45
2018-09-12T21:26:14.580Z,7.53
2018-09-12T21:28:43.082Z,7.60
2018-09-12T21:31:11.565Z,7.12
2018-09-12T21:33:43.017Z,7.75
2018-09-12T21:36:10.428Z,6.42
2018-09-12T21:38:38.951Z,7.87
2018-09-12T21:41:07.650Z,7.03
2018-09-12T21:43:36.111Z,7.75
2018-09-12T21:46:04.606Z,7.92
2018-09-12T21:48:33.649Z,7.22
2018-09-12T21:51:02.471Z,7.08
2018-09-12T21:53:31.086Z,8.98
2018-09-12T21:55:59.713Z,7.42
2018-09-12T21:58:28.199Z,9.00
2018-09-12T22:00:56.689Z,7.25
2018-09-12T22:03:25.104Z,7.95
2018-09-12T22:05:53.632Z,7.78
2018-09-12T22:08:22.237Z,7.08
2018-09-12T22:10:50.746Z,8.58
2018-09-12T22:13:19.465Z,9.15
2018-09-12T22:15:47.937Z,7.75
2018-09-12T22:18:17.514Z,7.35
2018-09-12T22:20:45.955Z,7.35
2018-09-12T22:23:14.487Z,7.45
2018-09-12T22:25:42.934Z,7.08
2018-09-12T22:28:11.447Z,8.08
2018-09-12T22:30:40.126Z,7.20
2018-09-12T22:33:08.658Z,8.03
2018-09-12T22:35:37.065Z,7.30
2018-09-12T22:38:05.847Z,9.35
2018-09-12T22:40:34.311Z,9.05
2018-09-12T22:43:03.558Z,7.75
2018-09-12T22:45:32.138Z,7.97
2018-09-12T22:48:00.948Z,8.43
2018-09-12T22:50:29.405Z,8.35
2018-09-12T22:52:57.838Z,6.80
2018-09-12T22:55:32.536Z,7.42
2018-09-12T22:58:01.035Z,7.55
2018-09-12T23:00:29.577Z,8.00
2018-09-12T23:02:58.001Z,9.05
2018-09-12T23:05:26.458Z,7.85
2018-09-12T23:07:54.882Z,8.53
2018-09-12T23:10:23.342Z,8.45
2018-09-12T23:12:51.755Z,11.90
2018-09-12T23:15:20.214Z,9.73
2018-09-12T23:17:48.642Z,10.78
2018-09-12T23:20:17.124Z,7.75
2018-09-12T23:22:45.537Z,8.33
2018-09-12T23:25:14.007Z,8.38
2018-09-12T23:27:42.406Z,6.95
2018-09-12T23:30:10.858Z,7.97
2018-09-12T23:32:39.277Z,10.40
2018-09-12T23:35:07.762Z,6.72
2018-09-12T23:37:36.175Z,7.08
2018-09-12T23:40:04.646Z,7.37
2018-09-12T23:42:33.114Z,9.18
2018-09-12T23:45:01.991Z,8.65
2018-09-12T23:47:30.393Z,7.50
2018-09-12T23:49:58.849Z,6.50
2018-09-12T23:52:27.281Z,7.72
2018-09-12T23:54:55.717Z,8.93
2018-09-12T23:57:24.094Z,7.03
2018-09-12T23:59:52.481Z,7.42
